Time;durP1;ratioP1;P1;durP2;ratioP2;P2;SDS_P1;SDS_P2;PMS_P1;PMS_P2;Temp;Humidity;BMP_temperature;BMP_pressure;BME280_temperature;BME280_humidity;BME280_pressure;Samples;Min_cycle;Max_cycle;Signal;HPM_P1;HPM_P2
2022/10/30 00:02:06;;;;;;;18.93;6.10;;;13.20;99.90;;;;;;5068621;28;20463;-72
2022/10/30 00:04:52;;;;;;;13.93;6.40;;;13.20;99.90;;;;;;5064142;28;20393;-72
2022/10/30 00:07:37;;;;;;;12.70;7.43;;;13.30;99.90;;;;;;5071432;28;20512;-72
2022/10/30 00:10:25;;;;;;;18.73;7.20;;;13.30;99.90;;;;;;5071112;28;20435;-72
2022/10/30 00:13:11;;;;;;;13.97;6.67;;;13.40;99.90;;;;;;5068186;28;20480;-72
2022/10/30 00:15:57;;;;;;;13.97;7.10;;;13.30;99.90;;;;;;5068752;28;20450;-72
2022/10/30 00:18:43;;;;;;;11.63;5.67;;;13.20;99.90;;;;;;5071285;28;20426;-72
2022/10/30 00:21:29;;;;;;;11.27;7.47;;;13.30;99.90;;;;;;5071413;28;20649;-72
2022/10/30 00:24:15;;;;;;;14.40;6.83;;;13.30;99.90;;;;;;5070329;28;20427;-71
2022/10/30 00:27:02;;;;;;;10.13;5.90;;;13.20;99.90;;;;;;5069334;28;20470;-72
2022/10/30 00:29:47;;;;;;;11.90;6.40;;;13.10;99.90;;;;;;5070990;28;20470;-72
2022/10/30 00:32:33;;;;;;;12.40;7.20;;;13.20;99.90;;;;;;5071221;28;20446;-72
2022/10/30 00:35:19;;;;;;;10.00;6.50;;;13.10;99.90;;;;;;5070168;28;20736;-72
2022/10/30 00:38:04;;;;;;;14.67;6.60;;;13.00;99.90;;;;;;5068035;28;20469;-72
2022/10/30 00:40:50;;;;;;;14.43;6.77;;;13.00;99.90;;;;;;5062846;28;20483;-72
2022/10/30 00:43:40;;;;;;;12.50;7.10;;;13.00;99.90;;;;;;5056706;28;20536;-72
2022/10/30 00:46:30;;;;;;;11.83;7.03;;;13.00;99.90;;;;;;5063446;28;20471;-71
2022/10/30 00:49:17;;;;;;;20.40;6.90;;;13.10;99.90;;;;;;5069540;28;20465;-72
2022/10/30 00:52:05;;;;;;;15.93;6.47;;;13.10;99.90;;;;;;5070471;28;20955;-72
2022/10/30 00:54:53;;;;;;;18.50;6.77;;;13.10;99.90;;;;;;5061449;28;20497;-72
2022/10/30 00:57:39;;;;;;;16.30;7.03;;;13.00;99.90;;;;;;5065220;28;20405;-72
2022/10/30 01:00:29;;;;;;;11.10;6.27;;;13.00;99.90;;;;;;5071095;28;20427;-71
2022/10/30 01:03:15;;;;;;;18.10;6.80;;;12.90;99.90;;;;;;5070691;28;20454;-72
2022/10/30 01:06:06;;;;;;;11.47;6.37;;;12.90;99.90;;;;;;5066028;28;20409;-72
2022/10/30 01:08:54;;;;;;;15.67;6.30;;;12.90;99.90;;;;;;5070079;28;20487;-71
2022/10/30 01:11:39;;;;;;;13.20;7.10;;;12.90;99.90;;;;;;5072543;28;20396;-72
2022/10/30 01:14:25;;;;;;;13.97;7.00;;;12.90;99.90;;;;;;5073188;28;20405;-72
2022/10/30 01:17:37;;;;;;;11.93;5.83;;;13.00;99.90;;;;;;5072518;28;21051;-72
2022/10/30 01:20:35;;;;;;;14.90;5.53;;;13.00;99.90;;;;;;5074323;28;20754;-72
2022/10/30 01:23:35;;;;;;;10.40;6.83;;;13.10;99.90;;;;;;5073520;28;20512;-72
2022/10/30 01:26:33;;;;;;;15.43;6.23;;;13.00;99.90;;;;;;5072407;28;20455;-71
2022/10/30 01:29:35;;;;;;;14.63;5.80;;;13.10;99.90;;;;;;5071777;28;20437;-71
2022/10/30 01:32:38;;;;;;;11.63;6.10;;;13.10;99.90;;;;;;5072237;28;20453;-71
2022/10/30 01:35:33;;;;;;;14.93;5.77;;;13.00;99.90;;;;;;5058628;28;20446;-72
2022/10/30 01:38:26;;;;;;;12.17;5.80;;;12.90;99.90;;;;;;5073942;28;20443;-72
2022/10/30 01:41:12;;;;;;;13.23;6.17;;;12.80;99.90;;;;;;5073786;28;20491;-72
2022/10/30 01:44:01;;;;;;;11.17;6.60;;;12.80;99.90;;;;;;5068464;28;20457;-72
2022/10/30 01:47:08;;;;;;;9.87;5.40;;;12.80;99.90;;;;;;5070508;28;20472;-73
2022/10/30 01:50:16;;;;;;;15.00;5.77;;;12.80;99.90;;;;;;5069561;28;21044;-73
2022/10/30 01:53:11;;;;;;;15.30;5.97;;;12.70;99.90;;;;;;5073040;28;20495;-73
2022/10/30 01:56:12;;;;;;;14.03;5.60;;;12.80;99.90;;;;;;5064266;28;20937;-73
2022/10/30 01:59:07;;;;;;;14.83;5.73;;;12.70;99.90;;;;;;5072843;28;20417;-73
2022/10/30 02:01:53;;;;;;;10.40;6.77;;;12.70;99.90;;;;;;5070930;28;20460;-73
2022/10/30 02:04:39;;;;;;;15.10;6.10;;;12.60;99.90;;;;;;5063671;28;20447;-73
2022/10/30 02:07:26;;;;;;;14.93;6.73;;;12.50;99.90;;;;;;5072221;28;20863;-73
2022/10/30 02:10:12;;;;;;;11.10;6.70;;;12.50;99.90;;;;;;5071884;28;20997;-73
2022/10/30 02:12:58;;;;;;;13.90;6.80;;;12.40;99.90;;;;;;5072662;28;20929;-72
2022/10/30 02:15:45;;;;;;;20.90;7.77;;;12.50;99.90;;;;;;5066175;28;20420;-73
2022/10/30 02:18:30;;;;;;;10.47;7.17;;;12.40;99.90;;;;;;5072585;28;20902;-73
2022/10/30 02:21:17;;;;;;;28.33;6.87;;;12.50;99.90;;;;;;5072506;28;20937;-73
2022/10/30 02:24:03;;;;;;;14.80;6.77;;;12.60;99.90;;;;;;5071551;28;20439;-72
2022/10/30 02:26:49;;;;;;;13.60;6.47;;;12.50;99.90;;;;;;5067628;28;20532;-73
2022/10/30 02:29:34;;;;;;;13.20;6.23;;;12.40;99.90;;;;;;5065370;28;20479;-73
2022/10/30 02:32:20;;;;;;;11.67;6.50;;;12.40;99.90;;;;;;5070439;28;20456;-73
2022/10/30 02:35:07;;;;;;;12.77;6.53;;;12.50;99.90;;;;;;5066397;28;20429;-73
2022/10/30 02:37:54;;;;;;;11.00;6.20;;;12.60;99.90;;;;;;5069149;28;20483;-73
2022/10/30 02:40:40;;;;;;;15.90;6.43;;;12.50;99.90;;;;;;5072077;28;20423;-73
2022/10/30 02:43:26;;;;;;;25.50;8.40;;;12.50;99.90;;;;;;5071614;28;20453;-73
2022/10/30 02:46:11;;;;;;;16.90;6.90;;;12.50;99.90;;;;;;5067903;28;20914;-72
2022/10/30 02:48:57;;;;;;;13.97;5.90;;;12.60;99.90;;;;;;5067638;28;20452;-73
2022/10/30 02:51:43;;;;;;;10.73;6.10;;;12.60;99.90;;;;;;5072093;28;20480;-73
2022/10/30 02:54:30;;;;;;;10.13;5.43;;;12.40;99.90;;;;;;5068857;28;20463;-73
2022/10/30 02:57:15;;;;;;;10.23;5.47;;;12.40;99.90;;;;;;5070051;28;20397;-73
2022/10/30 03:00:01;;;;;;;9.00;5.83;;;12.40;99.90;;;;;;5068049;28;20886;-73
2022/10/30 03:02:46;;;;;;;9.27;5.83;;;12.30;99.90;;;;;;5062320;28;20944;-73
2022/10/30 03:05:32;;;;;;;12.13;5.40;;;12.40;99.90;;;;;;5066286;28;20548;-73
2022/10/30 03:08:18;;;;;;;17.97;5.60;;;12.30;99.90;;;;;;5070230;28;20437;-73
2022/10/30 03:11:07;;;;;;;11.07;5.33;;;12.20;99.90;;;;;;5072406;28;20422;-73
2022/10/30 03:13:52;;;;;;;9.60;6.03;;;12.30;99.90;;;;;;5066931;28;20485;-73
2022/10/30 03:16:38;;;;;;;12.07;5.40;;;12.30;99.90;;;;;;5067161;28;20432;-73
2022/10/30 03:19:24;;;;;;;11.00;5.33;;;12.20;99.90;;;;;;5070967;28;20411;-73
2022/10/30 03:22:09;;;;;;;12.13;6.03;;;12.20;99.90;;;;;;5052361;28;20410;-73
2022/10/30 03:24:55;;;;;;;12.20;5.73;;;12.10;99.90;;;;;;5063268;28;20446;-73
2022/10/30 03:27:42;;;;;;;14.33;6.13;;;12.10;99.90;;;;;;5071333;28;20554;-73
2022/10/30 03:30:28;;;;;;;10.23;6.17;;;12.10;99.90;;;;;;5069824;28;20495;-73
2022/10/30 03:33:13;;;;;;;13.90;6.47;;;12.10;99.90;;;;;;5071382;28;21038;-73
2022/10/30 03:35:59;;;;;;;17.77;5.47;;;12.20;99.90;;;;;;5067788;28;20447;-73
2022/10/30 03:38:45;;;;;;;9.30;6.03;;;12.20;99.90;;;;;;5070056;28;20437;-73
2022/10/30 03:41:30;;;;;;;11.47;5.57;;;12.20;99.90;;;;;;5070602;28;20463;-73
2022/10/30 03:44:17;;;;;;;15.03;5.60;;;12.20;99.90;;;;;;5065470;28;20452;-73
2022/10/30 03:47:03;;;;;;;9.17;5.80;;;12.10;99.90;;;;;;5066836;28;20806;-73
2022/10/30 03:49:48;;;;;;;9.13;5.60;;;12.20;99.90;;;;;;5069731;28;20803;-73
2022/10/30 03:52:34;;;;;;;14.83;6.50;;;12.20;99.90;;;;;;5071214;28;20516;-72
2022/10/30 03:55:20;;;;;;;10.70;5.33;;;12.00;99.90;;;;;;5065028;28;20441;-73
2022/10/30 03:58:07;;;;;;;17.70;6.90;;;12.00;99.90;;;;;;5066366;28;20430;-73
2022/10/30 04:00:54;;;;;;;16.17;5.30;;;12.10;99.90;;;;;;5061409;28;20895;-73
2022/10/30 04:03:39;;;;;;;8.87;6.03;;;12.00;99.90;;;;;;5063450;28;20441;-73
2022/10/30 04:06:25;;;;;;;18.27;6.10;;;12.00;99.90;;;;;;5068263;28;20577;-73
2022/10/30 04:09:11;;;;;;;20.47;7.00;;;12.00;99.90;;;;;;5069209;28;20478;-73
2022/10/30 04:11:57;;;;;;;12.80;5.57;;;11.90;99.90;;;;;;5071450;28;20427;-73
2022/10/30 04:14:42;;;;;;;10.90;6.17;;;11.80;99.90;;;;;;5067547;28;20564;-73
2022/10/30 04:17:29;;;;;;;10.70;6.23;;;11.80;99.90;;;;;;5070438;28;20425;-73
2022/10/30 04:20:15;;;;;;;19.80;6.13;;;11.90;99.90;;;;;;5069836;28;20425;-73
2022/10/30 04:23:02;;;;;;;14.50;6.40;;;11.90;99.90;;;;;;5069015;28;20960;-72
2022/10/30 04:25:48;;;;;;;14.10;6.60;;;12.00;99.90;;;;;;5063911;28;20450;-73
2022/10/30 04:28:33;;;;;;;9.80;5.20;;;12.00;99.90;;;;;;5071029;28;20401;-73
2022/10/30 04:31:19;;;;;;;14.70;5.90;;;12.00;99.90;;;;;;5069657;28;20426;-72
2022/10/30 04:34:06;;;;;;;13.43;5.80;;;11.90;99.90;;;;;;5063148;28;20550;-72
2022/10/30 04:36:51;;;;;;;10.27;5.77;;;11.80;99.90;;;;;;5066455;28;20446;-72
2022/10/30 04:39:37;;;;;;;9.90;6.00;;;11.90;99.90;;;;;;5071179;28;20512;-73
2022/10/30 04:42:23;;;;;;;13.00;5.53;;;11.90;99.90;;;;;;5070150;28;21052;-72
2022/10/30 04:45:09;;;;;;;10.93;5.73;;;11.80;99.90;;;;;;5061260;28;20596;-73
2022/10/30 04:48:01;;;;;;;10.03;5.00;;;11.80;99.90;;;;;;5073324;28;20443;-73
2022/10/30 04:50:48;;;;;;;8.43;5.40;;;11.70;99.90;;;;;;5055811;28;20429;-73
2022/10/30 04:53:33;;;;;;;11.97;5.80;;;11.70;99.90;;;;;;5070002;28;21192;-73
2022/10/30 04:56:19;;;;;;;8.30;5.50;;;11.80;99.90;;;;;;5071634;28;20438;-72
2022/10/30 04:59:05;;;;;;;9.80;6.27;;;11.80;99.90;;;;;;5074629;28;20500;-74
2022/10/30 05:01:50;;;;;;;13.70;5.73;;;11.70;99.90;;;;;;5068896;28;20939;-73
2022/10/30 05:04:36;;;;;;;14.10;5.30;;;11.60;99.90;;;;;;5070852;28;20492;-75
2022/10/30 05:07:23;;;;;;;11.73;4.93;;;11.70;99.90;;;;;;5073903;28;20504;-72
2022/10/30 05:10:13;;;;;;;12.93;5.13;;;11.60;99.90;;;;;;5074775;28;20444;-73
2022/10/30 05:12:58;;;;;;;10.60;5.30;;;11.50;99.90;;;;;;5068480;28;20454;-73
2022/10/30 05:15:44;;;;;;;7.73;4.70;;;11.40;99.90;;;;;;5072612;28;20426;-72
2022/10/30 05:18:30;;;;;;;26.63;5.93;;;11.40;99.90;;;;;;5074017;28;20516;-72
2022/10/30 05:21:16;;;;;;;11.67;5.30;;;11.30;99.90;;;;;;5072400;28;20424;-73
2022/10/30 05:24:03;;;;;;;10.47;4.70;;;11.30;99.90;;;;;;5070300;28;20802;-73
2022/10/30 05:26:48;;;;;;;12.87;5.03;;;11.20;99.90;;;;;;5067561;28;20497;-73
2022/10/30 05:29:34;;;;;;;7.23;4.43;;;11.30;99.90;;;;;;5071314;28;20435;-73
2022/10/30 05:32:20;;;;;;;10.17;5.80;;;11.30;99.90;;;;;;5070345;28;21060;-73
2022/10/30 05:35:06;;;;;;;12.67;5.37;;;11.40;99.90;;;;;;5070742;28;20404;-73
2022/10/30 05:37:52;;;;;;;11.83;6.43;;;11.40;99.90;;;;;;5073600;28;20465;-73
2022/10/30 05:40:39;;;;;;;9.53;6.00;;;11.40;99.90;;;;;;5066287;28;20515;-73
2022/10/30 05:43:24;;;;;;;12.40;4.77;;;11.40;99.90;;;;;;5070280;28;20469;-73
2022/10/30 05:46:10;;;;;;;9.80;5.00;;;11.30;99.90;;;;;;5065556;28;20424;-73
2022/10/30 05:48:55;;;;;;;11.50;6.50;;;11.20;99.90;;;;;;5072406;28;20417;-72
2022/10/30 05:51:41;;;;;;;11.50;5.20;;;11.20;99.90;;;;;;5066014;28;20469;-73
2022/10/30 05:54:27;;;;;;;16.13;6.33;;;11.30;99.90;;;;;;5064689;28;20476;-72
2022/10/30 05:57:14;;;;;;;8.90;5.40;;;11.30;99.90;;;;;;5072939;28;20405;-73
2022/10/30 05:59:59;;;;;;;13.23;5.57;;;11.40;99.90;;;;;;5073031;28;20964;-73
2022/10/30 06:02:45;;;;;;;15.03;5.40;;;11.30;99.90;;;;;;5063421;28;20440;-73
2022/10/30 06:05:32;;;;;;;8.93;4.73;;;11.30;99.90;;;;;;5073206;28;20583;-75
2022/10/30 06:08:18;;;;;;;7.63;5.57;;;11.20;99.90;;;;;;5071283;28;20436;-73
2022/10/30 06:11:04;;;;;;;8.80;5.00;;;11.10;99.90;;;;;;5073705;28;20470;-75
2022/10/30 06:13:51;;;;;;;9.80;5.33;;;11.10;99.90;;;;;;5061664;28;20845;-74
2022/10/30 06:16:36;;;;;;;8.00;4.80;;;11.00;99.90;;;;;;5065658;28;20393;-74
2022/10/30 06:19:22;;;;;;;11.83;5.07;;;11.00;99.90;;;;;;5070727;28;20449;-75
2022/10/30 06:22:08;;;;;;;10.03;5.80;;;11.00;99.90;;;;;;5069952;28;21193;-73
2022/10/30 06:24:53;;;;;;;10.33;5.93;;;11.00;99.90;;;;;;5066901;28;20437;-74
2022/10/30 06:27:39;;;;;;;8.27;5.63;;;11.10;99.90;;;;;;5072526;28;20446;-75
2022/10/30 06:30:27;;;;;;;10.10;5.67;;;11.10;99.90;;;;;;5072617;28;20469;-74
2022/10/30 06:33:12;;;;;;;9.03;5.50;;;11.10;99.90;;;;;;5059731;28;20458;-74
2022/10/30 06:35:58;;;;;;;21.40;5.50;;;11.10;99.90;;;;;;5070990;28;20596;-74
2022/10/30 06:38:44;;;;;;;7.67;5.33;;;11.20;99.90;;;;;;5073061;28;20410;-74
2022/10/30 06:41:29;;;;;;;11.53;6.80;;;11.20;99.90;;;;;;5071694;28;20386;-74
2022/10/30 06:44:15;;;;;;;10.50;5.77;;;11.20;99.90;;;;;;5069986;28;20435;-74
2022/10/30 06:47:02;;;;;;;7.50;5.37;;;11.20;99.90;;;;;;5071109;28;20429;-74
2022/10/30 06:49:47;;;;;;;11.27;5.40;;;11.20;99.90;;;;;;5066662;28;20482;-74
2022/10/30 06:52:33;;;;;;;14.03;5.80;;;11.20;99.90;;;;;;5069396;28;20518;-75
2022/10/30 06:55:19;;;;;;;9.03;5.30;;;11.10;99.90;;;;;;5071825;28;20809;-74
2022/10/30 06:58:04;;;;;;;8.57;5.93;;;11.10;99.90;;;;;;5072650;28;20596;-74
2022/10/30 07:00:50;;;;;;;23.63;5.90;;;11.10;99.90;;;;;;5070324;28;20439;-74
2022/10/30 07:03:38;;;;;;;10.10;6.10;;;11.20;99.90;;;;;;5068450;28;20433;-74
2022/10/30 07:06:23;;;;;;;12.07;6.07;;;11.20;99.90;;;;;;5072314;28;20405;-74
2022/10/30 07:09:09;;;;;;;9.73;6.20;;;11.40;99.90;;;;;;5070125;28;20428;-74
2022/10/30 07:11:55;;;;;;;14.53;6.53;;;11.40;99.90;;;;;;5066059;28;20420;-74
2022/10/30 07:14:40;;;;;;;8.97;5.40;;;11.40;99.90;;;;;;5069461;28;20943;-74
2022/10/30 07:17:26;;;;;;;8.23;5.47;;;11.40;99.90;;;;;;5072401;28;20929;-74
2022/10/30 07:20:13;;;;;;;7.80;6.63;;;11.40;99.90;;;;;;5070703;28;20409;-75
2022/10/30 07:23:00;;;;;;;13.23;7.63;;;11.50;99.90;;;;;;5069378;28;20445;-74
2022/10/30 07:25:45;;;;;;;8.20;6.03;;;11.50;99.90;;;;;;5069836;28;20423;-75
2022/10/30 07:28:31;;;;;;;19.70;7.00;;;11.40;99.90;;;;;;5070592;28;20495;-75
2022/10/30 07:31:17;;;;;;;15.20;6.50;;;11.50;99.90;;;;;;5070831;28;21002;-75
2022/10/30 07:34:03;;;;;;;10.40;6.80;;;11.60;99.90;;;;;;5069471;28;20583;-74
2022/10/30 07:36:50;;;;;;;15.43;8.20;;;11.70;99.90;;;;;;5070725;28;20425;-74
2022/10/30 07:39:35;;;;;;;8.70;6.93;;;11.80;99.90;;;;;;5063809;28;20572;-74
2022/10/30 07:42:21;;;;;;;14.03;7.10;;;11.90;99.90;;;;;;5068213;28;20452;-73
2022/10/30 07:45:08;;;;;;;14.30;6.37;;;11.90;99.90;;;;;;5068999;28;20446;-74
2022/10/30 07:47:54;;;;;;;13.37;6.33;;;12.00;99.90;;;;;;5071338;28;20444;-75
2022/10/30 07:50:39;;;;;;;11.07;7.10;;;12.10;99.90;;;;;;5070647;28;20470;-74
2022/10/30 07:53:26;;;;;;;16.47;6.07;;;12.20;99.90;;;;;;5061046;28;20445;-74
2022/10/30 07:56:12;;;;;;;12.97;6.70;;;12.20;99.90;;;;;;5067374;28;20487;-74
2022/10/30 07:58:58;;;;;;;15.13;8.27;;;12.20;99.90;;;;;;5066377;28;20401;-75
2022/10/30 08:01:44;;;;;;;13.60;8.83;;;12.30;99.90;;;;;;5069279;28;20438;-73
2022/10/30 08:04:29;;;;;;;14.17;9.60;;;12.30;99.90;;;;;;5069708;28;20430;-74
2022/10/30 08:07:15;;;;;;;10.60;7.40;;;12.40;99.90;;;;;;5070879;28;20439;-75
2022/10/30 08:10:02;;;;;;;15.50;9.47;;;12.40;99.90;;;;;;5070071;28;20449;-75
2022/10/30 08:12:48;;;;;;;19.47;11.37;;;12.50;99.90;;;;;;5068157;28;20432;-75
2022/10/30 08:15:34;;;;;;;17.03;9.60;;;12.50;99.90;;;;;;5070955;28;20430;-74
2022/10/30 08:18:19;;;;;;;12.97;8.70;;;12.60;99.90;;;;;;5070761;28;20398;-74
2022/10/30 08:21:05;;;;;;;13.60;8.37;;;12.60;99.90;;;;;;5068959;28;20536;-74
2022/10/30 08:23:51;;;;;;;19.23;10.13;;;12.60;99.90;;;;;;5058480;28;20595;-74
2022/10/30 08:26:38;;;;;;;13.77;8.43;;;12.60;99.90;;;;;;5063212;28;20394;-74
2022/10/30 08:29:24;;;;;;;12.83;9.70;;;12.60;99.90;;;;;;5069016;28;20971;-74
2022/10/30 08:32:10;;;;;;;15.53;9.00;;;12.70;99.90;;;;;;5065094;28;20613;-74
2022/10/30 08:34:55;;;;;;;16.33;9.10;;;12.80;99.90;;;;;;5069928;28;20446;-74
2022/10/30 08:37:41;;;;;;;24.83;10.03;;;12.70;99.90;;;;;;5070089;28;20525;-74
2022/10/30 08:40:27;;;;;;;11.33;9.17;;;12.80;99.90;;;;;;5071009;28;20543;-75
2022/10/30 08:43:14;;;;;;;16.70;9.93;;;12.80;99.90;;;;;;5056429;28;20473;-74
2022/10/30 08:46:00;;;;;;;11.57;8.57;;;12.90;99.90;;;;;;5069540;28;20431;-75
2022/10/30 08:48:45;;;;;;;14.80;9.53;;;13.00;99.90;;;;;;5059624;28;20503;-75
2022/10/30 08:51:32;;;;;;;19.33;8.23;;;13.10;99.90;;;;;;5069146;28;20482;-74
2022/10/30 08:54:18;;;;;;;15.67;8.20;;;13.30;99.90;;;;;;5065497;28;20793;-74
2022/10/30 08:57:04;;;;;;;16.50;8.60;;;13.30;99.90;;;;;;5066688;28;20763;-74
2022/10/30 08:59:51;;;;;;;12.73;7.43;;;13.40;99.90;;;;;;5064651;28;20426;-74
2022/10/30 09:02:38;;;;;;;11.60;7.87;;;13.40;99.90;;;;;;5059945;28;21074;-74
2022/10/30 09:05:24;;;;;;;13.70;7.93;;;13.50;99.90;;;;;;5069522;28;20976;-74
2022/10/30 09:08:09;;;;;;;17.60;7.60;;;13.60;99.90;;;;;;5070320;28;20524;-74
2022/10/30 09:10:55;;;;;;;13.50;7.00;;;13.70;99.90;;;;;;5069470;28;20457;-74
2022/10/30 09:13:42;;;;;;;16.40;7.60;;;13.90;99.90;;;;;;5069658;28;20559;-74
2022/10/30 09:16:29;;;;;;;18.43;7.40;;;14.00;99.90;;;;;;5068285;28;20524;-75
2022/10/30 09:19:14;;;;;;;14.53;7.60;;;14.20;99.90;;;;;;5070770;28;20407;-75
2022/10/30 09:22:00;;;;;;;10.80;7.07;;;14.30;99.90;;;;;;5066875;28;20439;-75
2022/10/30 09:24:46;;;;;;;13.87;7.60;;;14.50;99.90;;;;;;5067497;28;20427;-75
2022/10/30 09:27:31;;;;;;;14.47;7.30;;;14.70;99.90;;;;;;5068945;28;20817;-75
2022/10/30 09:30:18;;;;;;;19.13;7.10;;;14.90;99.90;;;;;;5070261;28;20434;-75
2022/10/30 09:33:05;;;;;;;23.70;8.30;;;15.10;99.90;;;;;;5062198;28;20494;-75
2022/10/30 09:35:50;;;;;;;16.10;7.20;;;15.30;99.90;;;;;;5067447;28;20517;-74
2022/10/30 09:38:36;;;;;;;19.70;7.30;;;15.50;99.90;;;;;;5070881;28;20466;-75
2022/10/30 09:41:34;;;;;;;11.50;6.70;;;15.80;99.90;;;;;;5069702;28;20417;-75
2022/10/30 09:44:31;;;;;;;13.20;6.83;;;16.10;99.90;;;;;;5071176;28;20421;-74
2022/10/30 09:47:28;;;;;;;12.50;6.83;;;16.40;99.90;;;;;;5073073;28;20928;-75
2022/10/30 09:50:25;;;;;;;12.23;5.97;;;16.60;99.90;;;;;;5071110;28;20406;-75
2022/10/30 09:53:16;;;;;;;11.43;5.60;;;16.80;99.90;;;;;;5071880;28;20444;-75
2022/10/30 09:56:08;;;;;;;23.10;5.77;;;17.00;99.90;;;;;;5072753;28;20790;-74
2022/10/30 09:59:06;;;;;;;24.50;6.77;;;17.20;99.90;;;;;;5067007;28;20569;-75
2022/10/30 10:01:55;;;;;;;13.27;5.73;;;17.50;99.90;;;;;;5067338;28;20782;-75
2022/10/30 10:04:43;;;;;;;14.83;5.77;;;17.70;99.90;;;;;;5070629;28;20397;-74
2022/10/30 10:07:36;;;;;;;14.03;6.30;;;18.00;99.90;;;;;;5072857;28;20922;-74
2022/10/30 10:10:34;;;;;;;13.60;7.10;;;18.20;99.90;;;;;;5072101;28;20419;-75
2022/10/30 10:13:30;;;;;;;11.03;5.83;;;18.40;99.90;;;;;;5071747;28;20530;-74
2022/10/30 10:16:19;;;;;;;11.40;6.03;;;18.70;99.90;;;;;;5072005;28;20451;-74
2022/10/30 10:19:12;;;;;;;7.33;5.60;;;18.90;99.90;;;;;;5072261;28;20424;-74
2022/10/30 10:21:59;;;;;;;16.73;6.20;;;19.10;99.90;;;;;;5068487;28;20513;-74
2022/10/30 10:24:47;;;;;;;11.13;5.40;;;19.40;99.90;;;;;;5068645;28;20488;-74
2022/10/30 10:27:48;;;;;;;14.67;6.00;;;19.50;99.90;;;;;;5072449;28;20447;-75
2022/10/30 10:30:43;;;;;;;19.47;6.30;;;19.70;99.90;;;;;;5058253;28;20884;-75
2022/10/30 10:33:42;;;;;;;13.20;6.53;;;19.70;99.90;;;;;;5072206;28;20549;-74
2022/10/30 10:36:35;;;;;;;13.23;5.20;;;19.80;99.90;;;;;;5071785;28;20440;-75
2022/10/30 10:39:34;;;;;;;10.53;5.70;;;19.90;99.90;;;;;;5071555;28;20427;-75
2022/10/30 10:42:29;;;;;;;11.17;5.80;;;20.00;99.90;;;;;;5067322;28;20470;-72
2022/10/30 10:45:27;;;;;;;8.30;5.27;;;20.00;99.90;;;;;;5068665;28;20415;-74
2022/10/30 10:48:42;;;;;;;16.97;5.57;;;20.00;99.90;;;;;;5069309;28;20597;-75
2022/10/30 10:51:33;;;;;;;14.20;5.03;;;20.00;99.90;;;;;;5069294;28;20524;-74
2022/10/30 10:54:23;;;;;;;11.40;5.43;;;19.90;99.90;;;;;;5068169;28;20477;-74
2022/10/30 10:57:25;;;;;;;10.70;5.23;;;19.90;99.90;;;;;;5072053;28;20437;-74
2022/10/30 11:00:17;;;;;;;12.23;5.60;;;19.90;99.90;;;;;;5070454;28;20434;-74
2022/10/30 11:03:09;;;;;;;17.33;5.20;;;19.80;99.90;;;;;;5072134;28;20517;-73
2022/10/30 11:05:59;;;;;;;21.37;5.40;;;19.80;99.90;;;;;;5090942;28;20501;-73
2022/10/30 11:08:45;;;;;;;11.37;5.77;;;19.80;99.90;;;;;;5092408;28;20425;-74
2022/10/30 11:11:30;;;;;;;14.83;6.00;;;19.90;99.90;;;;;;5067202;28;21093;-74
2022/10/30 11:14:18;;;;;;;14.87;5.90;;;19.90;99.90;;;;;;5051809;28;20406;-74
2022/10/30 11:17:15;;;;;;;9.30;5.73;;;20.00;99.90;;;;;;5070695;28;20785;-74
2022/10/30 11:20:13;;;;;;;11.10;5.40;;;20.00;99.90;;;;;;5069542;28;20447;-72
2022/10/30 11:22:58;;;;;;;14.47;6.10;;;20.00;99.90;;;;;;5070296;28;20442;-73
2022/10/30 11:25:44;;;;;;;19.73;7.23;;;20.00;99.90;;;;;;5064882;28;21041;-73
2022/10/30 11:28:41;;;;;;;15.77;5.40;;;20.00;99.90;;;;;;5071085;28;20820;-73
2022/10/30 11:31:33;;;;;;;11.03;4.87;;;20.00;99.90;;;;;;5069229;28;20617;-73
2022/10/30 11:34:33;;;;;;;13.90;4.93;;;20.10;99.90;;;;;;5071619;28;20481;-73
2022/10/30 11:37:30;;;;;;;9.27;4.70;;;20.20;99.90;;;;;;5072075;28;20397;-73
2022/10/30 11:40:19;;;;;;;10.90;4.73;;;20.30;99.90;;;;;;5068587;28;20439;-73
2022/10/30 11:43:05;;;;;;;14.00;5.00;;;20.40;99.90;;;;;;5069314;28;20620;-73
2022/10/30 11:45:51;;;;;;;8.50;4.10;;;20.40;99.90;;;;;;5068091;28;20417;-75
2022/10/30 11:48:39;;;;;;;9.17;5.07;;;20.50;99.90;;;;;;5069683;28;20589;-73
2022/10/30 11:51:37;;;;;;;12.00;5.00;;;20.60;99.90;;;;;;5067682;28;20604;-73
2022/10/30 11:54:22;;;;;;;14.60;4.40;;;20.70;99.90;;;;;;5068906;28;20823;-73
2022/10/30 11:57:22;;;;;;;12.83;4.97;;;20.80;99.90;;;;;;5064519;28;20914;-73
2022/10/30 12:00:22;;;;;;;8.90;4.73;;;20.90;99.90;;;;;;5068277;28;20536;-73
2022/10/30 12:03:28;;;;;;;12.90;4.30;;;21.10;99.90;;;;;;5069757;28;20941;-73
2022/10/30 12:06:20;;;;;;;10.50;5.00;;;21.30;99.90;;;;;;5068175;28;20430;-73
2022/10/30 12:09:12;;;;;;;10.20;3.87;;;21.40;99.90;;;;;;5063710;28;20548;-74
2022/10/30 12:11:58;;;;;;;15.63;4.30;;;21.70;99.90;;;;;;5066486;28;20570;-74
2022/10/30 12:14:44;;;;;;;10.83;3.60;;;21.90;92.40;;;;;;5070408;28;20763;-75
2022/10/30 12:17:29;;;;;;;12.20;4.27;;;22.20;92.60;;;;;;5069894;28;20426;-73
2022/10/30 12:20:16;;;;;;;7.87;4.03;;;22.40;77.30;;;;;;5066316;28;20564;-75
2022/10/30 12:23:10;;;;;;;11.80;4.23;;;22.60;70.10;;;;;;5070953;28;20438;-74
2022/10/30 12:25:59;;;;;;;13.13;4.13;;;22.80;66.90;;;;;;5067685;28;20902;-74
2022/10/30 12:28:53;;;;;;;8.97;3.83;;;22.90;64.70;;;;;;5064446;28;20422;-74
2022/10/30 12:31:46;;;;;;;8.50;3.60;;;23.10;60.60;;;;;;5070309;28;20458;-74
2022/10/30 12:34:40;;;;;;;15.90;4.73;;;23.30;59.50;;;;;;5069839;28;20792;-73
2022/10/30 12:37:29;;;;;;;12.13;3.63;;;23.60;57.20;;;;;;5069307;28;20943;-75
2022/10/30 12:40:19;;;;;;;12.97;3.70;;;23.80;57.40;;;;;;5060558;28;20965;-75
2022/10/30 12:43:13;;;;;;;6.40;3.30;;;23.90;57.50;;;;;;5066931;28;20644;-75
2022/10/30 12:46:08;;;;;;;8.47;4.03;;;24.10;60.00;;;;;;5069486;28;20414;-74
2022/10/30 12:48:59;;;;;;;5.23;3.43;;;24.20;51.50;;;;;;5070449;28;20478;-74
2022/10/30 12:51:52;;;;;;;11.03;4.20;;;24.30;54.90;;;;;;5065896;28;20498;-74
2022/10/30 12:54:45;;;;;;;13.70;3.33;;;24.30;52.30;;;;;;5070265;28;20431;-75
2022/10/30 12:57:36;;;;;;;6.37;3.47;;;24.30;50.00;;;;;;5069981;28;21091;-75
2022/10/30 13:00:23;;;;;;;7.97;4.23;;;24.40;46.30;;;;;;5067109;28;20455;-74
2022/10/30 13:03:23;;;;;;;9.27;3.90;;;24.40;53.00;;;;;;5070668;28;20446;-74
2022/10/30 13:06:16;;;;;;;11.83;3.30;;;24.40;50.30;;;;;;5070041;28;20645;-74
2022/10/30 13:09:12;;;;;;;6.20;3.03;;;24.30;55.00;;;;;;5071511;28;20442;-74
2022/10/30 13:12:03;;;;;;;11.97;4.00;;;24.10;67.00;;;;;;5072826;28;20528;-74
2022/10/30 13:14:54;;;;;;;8.43;4.00;;;23.60;62.80;;;;;;5067324;28;20423;-74
2022/10/30 13:17:41;;;;;;;7.27;3.40;;;23.20;65.80;;;;;;5070883;28;20508;-74
2022/10/30 13:20:28;;;;;;;10.73;3.37;;;22.90;77.00;;;;;;5069287;28;20536;-74
2022/10/30 13:23:20;;;;;;;4.50;2.93;;;22.70;90.50;;;;;;5071026;28;20438;-75
2022/10/30 13:26:16;;;;;;;11.20;4.70;;;22.40;98.60;;;;;;5073449;28;20477;-74
2022/10/30 13:29:12;;;;;;;9.10;3.97;;;22.20;95.60;;;;;;5067567;28;20450;-73
2022/10/30 13:32:24;;;;;;;11.37;4.80;;;22.00;93.00;;;;;;5072954;28;20469;-75
2022/10/30 13:35:22;;;;;;;11.53;4.30;;;21.80;93.20;;;;;;5073396;28;20446;-74
2022/10/30 13:38:22;;;;;;;9.47;3.30;;;21.60;93.80;;;;;;5069746;28;20427;-74
2022/10/30 13:41:17;;;;;;;12.50;3.30;;;21.50;96.70;;;;;;5071300;28;20944;-74
2022/10/30 13:44:29;;;;;;;5.60;3.07;;;21.50;99.90;;;;;;5071538;28;20536;-73
2022/10/30 13:47:28;;;;;;;11.23;3.57;;;21.30;97.50;;;;;;5070382;28;20435;-74
2022/10/30 13:50:35;;;;;;;13.50;3.60;;;21.20;99.90;;;;;;5069715;28;20452;-73
2022/10/30 13:53:29;;;;;;;10.80;3.37;;;21.10;99.90;;;;;;5073485;28;20470;-73
2022/10/30 13:56:20;;;;;;;10.60;3.47;;;21.00;99.90;;;;;;5070634;28;20512;-73
2022/10/30 13:59:40;;;;;;;8.53;3.50;;;20.90;99.90;;;;;;5068577;28;20789;-75
2022/10/30 14:02:42;;;;;;;8.30;3.20;;;20.70;99.90;;;;;;5073709;28;20789;-73
2022/10/30 14:05:39;;;;;;;13.63;4.30;;;20.50;99.90;;;;;;5072475;28;20469;-73
2022/10/30 14:08:35;;;;;;;6.07;3.10;;;20.40;99.90;;;;;;5069138;28;20475;-74
2022/10/30 14:11:21;;;;;;;9.53;3.47;;;20.30;99.90;;;;;;5071430;28;20409;-73
2022/10/30 14:14:27;;;;;;;6.73;3.10;;;20.20;99.90;;;;;;5072178;28;20810;-73
2022/10/30 14:17:15;;;;;;;12.17;3.70;;;20.10;99.90;;;;;;5073386;28;21161;-73
2022/10/30 14:20:26;;;;;;;11.37;4.07;;;20.00;99.90;;;;;;5069177;28;20412;-73
2022/10/30 14:23:15;;;;;;;9.93;3.50;;;20.00;99.90;;;;;;5069731;28;20500;-73
2022/10/30 14:26:21;;;;;;;9.40;4.43;;;19.90;99.90;;;;;;5071968;28;20418;-74
2022/10/30 14:29:50;;;;;;;12.17;3.10;;;19.80;99.90;;;;;;5068216;28;20835;-74
2022/10/30 14:32:51;;;;;;;10.40;3.53;;;19.80;99.90;;;;;;5071367;28;21014;-73